Tropical Cyclones
[Index]
Main Index Home Page Stock Weather Photos Extreme Storms Discussion Storm News and Storm Chasing Reports Tropical Cyclones / Hurricanes / Typhoons Weather Data and Links Wild Fires / Bushfires Weather Observation Techniques Weather Picture Catalogue Tornado Pictures and Reports Stock Video Footage and DVDs for sale
Season 2010-2011 Tropical Cyclone TROP-DISTURBANCE-10 Track Map
Season 2010-2011 Summaries (Operational Data): [AU] [SIO] [SPAC] [SH]
<<- Previous TC | 2010-2011 Season | Next TC ->>

click for intensity scale information  Lat/long Grid: Show Hide

 Date Labels: Show Hide

Operational Tropical Cyclone Data

Name: TROP-DISTURBANCE-10
Number: 11SH

12 Apr 2011 00:00 UTC to 17 Apr 2011 06:00 UTC

    date/time    lat    long     hPa   cat  kts
2011-04-12 00   24.9    50.3    1007                     
2011-04-12 06   25.0    50.2    1007                     
2011-04-12 12   24.8    50.2    1006                     
2011-04-12 18   25.2    50.1    1007                     
2011-04-13 00   25.1    49.9    1007                     
2011-04-13 06   25.6    50.0    1007                     
2011-04-13 12   27.9    48.6    1001    1    40          
2011-04-13 18   28.6    48.7    1000    1    40          
2011-04-14 00   29.1    48.3     999    1    40          
2011-04-14 06   29.6    47.7     999    1    40          
2011-04-14 12   30.5    47.7     998    1    40          
2011-04-14 18   31.5    47.4     999    1    40          
2011-04-15 00   32.2    47.0     995    1    40          
2011-04-15 06   32.8    47.3     987    2    50          
2011-04-15 12   33.8    47.5     985    2    50          
2011-04-15 18   34.8    48.4     986    2    50          
2011-04-16 00   35.7    49.0     992    1    45          
2011-04-16 06   37.0    49.6     995    1    35          
2011-04-16 12   39.8    50.8    1002                     
2011-04-16 18   40.3    52.6    1005                     
2011-04-17 00   43.1    56.7    1007                     
2011-04-17 06   45.1    62.6    1007                     
Winds are 10-min average.

Tropical cyclone tracks developed by Michael Bath using operational warnings and advisories and Google Maps.


[Australian Severe Weather index] [Copyright Notice] [Email Contacts] [Search This Site] [Privacy Policy]
Document: tropical_cyclone_trop-disturbance-10.htm Updated: 28 May 2013